Lebo, Kansas
Current Conditions -  °F | °C
As of 3:53 PM on Friday 31 Oct 2014 (Local Time) from KEMP Reporting Station
Clear Clear  
Wind Chill: 42°   Ceiling: Unl
Heat Index: 47°   Visibility: 10mi
Dew Point: 15°   Wind: 12mph
Humidity: 28%   Direction: 40°NE
Pressure: 30.44"   Gusts: NA
Location:  38.42°N, 95.85°W
Report Text: KEMP 312053Z AUTO 04010KT 10SM CLR 08/M09 A3044 RMK AO2 SLP313 T00831094 56020
Loading
Personal Weather Stations






























Interactive Weather Map
Tropical Storm Tracking
New forecast layout! Learn more

10-Day Weather Forecast

Advertisements
Track Severe Weather on mobile